sensor_id;sensor_type;location;lat;lon;timestamp;P1;durP1;ratioP1;P2;durP2;ratioP2
1475;SDS011;730;48.870;12.542;2023-08-30T08:25:28;4.00;;;3.70;;
1475;SDS011;730;48.870;12.542;2023-08-30T08:27:54;3.40;;;2.20;;
1475;SDS011;730;48.870;12.542;2023-08-30T08:30:20;2.80;;;2.40;;
1475;SDS011;730;48.870;12.542;2023-08-30T08:32:46;3.00;;;2.30;;
1475;SDS011;730;48.870;12.542;2023-08-30T08:35:15;3.80;;;2.80;;
1475;SDS011;730;48.870;12.542;2023-08-30T10:51:02;1.40;;;1.10;;
1475;SDS011;730;48.870;12.542;2023-08-30T10:53:30;1.87;;;1.13;;
1475;SDS011;730;48.870;12.542;2023-08-30T10:56:03;3.10;;;1.63;;
1475;SDS011;730;48.870;12.542;2023-08-30T10:58:43;1.77;;;1.23;;
1475;SDS011;730;48.870;12.542;2023-08-30T11:01:09;1.97;;;1.37;;
1475;SDS011;730;48.870;12.542;2023-08-30T11:03:38;2.10;;;1.30;;
1475;SDS011;730;48.870;12.542;2023-08-30T11:06:05;1.47;;;1.17;;
1475;SDS011;730;48.870;12.542;2023-08-30T11:08:41;2.83;;;1.27;;
1475;SDS011;730;48.870;12.542;2023-08-30T11:11:08;2.20;;;1.17;;
1475;SDS011;730;48.870;12.542;2023-08-30T11:13:36;1.30;;;1.10;;
1475;SDS011;730;48.870;12.542;2023-08-30T11:16:02;1.53;;;1.00;;
1475;SDS011;730;48.870;12.542;2023-08-30T11:18:29;1.57;;;1.13;;
1475;SDS011;730;48.870;12.542;2023-08-30T11:21:00;1.70;;;1.37;;
1475;SDS011;730;48.870;12.542;2023-08-30T11:23:26;1.20;;;1.00;;
1475;SDS011;730;48.870;12.542;2023-08-30T11:25:53;3.10;;;1.43;;
1475;SDS011;730;48.870;12.542;2023-08-30T11:28:25;1.20;;;1.10;;
1475;SDS011;730;48.870;12.542;2023-08-30T11:30:54;2.80;;;1.30;;
1475;SDS011;730;48.870;12.542;2023-08-30T11:33:21;1.67;;;1.40;;
1475;SDS011;730;48.870;12.542;2023-08-30T11:35:48;2.00;;;1.60;;
1475;SDS011;730;48.870;12.542;2023-08-30T11:38:17;1.93;;;1.27;;
1475;SDS011;730;48.870;12.542;2023-08-30T11:40:43;1.30;;;1.00;;
1475;SDS011;730;48.870;12.542;2023-08-30T11:43:09;1.87;;;1.50;;
1475;SDS011;730;48.870;12.542;2023-08-30T11:45:36;2.00;;;1.43;;
1475;SDS011;730;48.870;12.542;2023-08-30T11:48:02;1.87;;;1.60;;
1475;SDS011;730;48.870;12.542;2023-08-30T11:50:28;1.70;;;1.40;;
1475;SDS011;730;48.870;12.542;2023-08-30T11:52:55;1.37;;;1.20;;
1475;SDS011;730;48.870;12.542;2023-08-30T11:55:21;1.60;;;1.50;;
1475;SDS011;730;48.870;12.542;2023-08-30T11:57:49;2.33;;;1.43;;
1475;SDS011;730;48.870;12.542;2023-08-30T12:00:20;2.47;;;1.70;;
1475;SDS011;730;48.870;12.542;2023-08-30T12:02:46;2.17;;;1.97;;
1475;SDS011;730;48.870;12.542;2023-08-30T12:05:12;2.23;;;2.10;;
1475;SDS011;730;48.870;12.542;2023-08-30T12:07:39;3.13;;;2.80;;
1475;SDS011;730;48.870;12.542;2023-08-30T12:10:09;3.83;;;2.87;;
1475;SDS011;730;48.870;12.542;2023-08-30T12:12:36;3.10;;;2.70;;
1475;SDS011;730;48.870;12.542;2023-08-30T12:15:07;3.40;;;3.10;;
1475;SDS011;730;48.870;12.542;2023-08-30T12:17:34;3.83;;;3.40;;
1475;SDS011;730;48.870;12.542;2023-08-30T12:20:01;4.10;;;3.80;;
1475;SDS011;730;48.870;12.542;2023-08-30T12:22:36;3.87;;;3.67;;
1475;SDS011;730;48.870;12.542;2023-08-30T12:25:03;4.33;;;4.03;;
1475;SDS011;730;48.870;12.542;2023-08-30T12:27:30;4.43;;;4.13;;
1475;SDS011;730;48.870;12.542;2023-08-30T12:29:56;4.80;;;4.40;;
1475;SDS011;730;48.870;12.542;2023-08-30T12:32:22;5.23;;;4.77;;
1475;SDS011;730;48.870;12.542;2023-08-30T12:34:48;4.60;;;4.30;;
1475;SDS011;730;48.870;12.542;2023-08-30T12:37:14;4.80;;;4.43;;
1475;SDS011;730;48.870;12.542;2023-08-30T12:39:40;4.33;;;4.03;;
1475;SDS011;730;48.870;12.542;2023-08-30T12:42:06;4.40;;;4.10;;
1475;SDS011;730;48.870;12.542;2023-08-30T12:44:32;4.50;;;4.20;;
1475;SDS011;730;48.870;12.542;2023-08-30T12:46:58;4.40;;;4.10;;
1475;SDS011;730;48.870;12.542;2023-08-30T12:49:24;6.03;;;5.47;;
1475;SDS011;730;48.870;12.542;2023-08-30T12:51:50;3.70;;;3.50;;
1475;SDS011;730;48.870;12.542;2023-08-30T12:54:16;4.80;;;4.50;;
1475;SDS011;730;48.870;12.542;2023-08-30T12:56:42;4.00;;;3.73;;
1475;SDS011;730;48.870;12.542;2023-08-30T12:59:08;4.03;;;3.73;;
1475;SDS011;730;48.870;12.542;2023-08-30T13:01:34;3.90;;;3.60;;
1475;SDS011;730;48.870;12.542;2023-08-30T13:04:00;4.53;;;4.23;;
1475;SDS011;730;48.870;12.542;2023-08-30T13:06:26;4.33;;;4.03;;
1475;SDS011;730;48.870;12.542;2023-08-30T13:08:52;5.70;;;4.63;;
1475;SDS011;730;48.870;12.542;2023-08-30T13:11:18;4.63;;;4.23;;
1475;SDS011;730;48.870;12.542;2023-08-30T13:13:44;5.40;;;4.97;;
1475;SDS011;730;48.870;12.542;2023-08-30T13:16:10;4.10;;;3.60;;
1475;SDS011;730;48.870;12.542;2023-08-30T13:18:36;4.67;;;4.27;;
1475;SDS011;730;48.870;12.542;2023-08-30T13:21:02;4.00;;;3.70;;
1475;SDS011;730;48.870;12.542;2023-08-30T13:23:29;4.63;;;4.23;;
1475;SDS011;730;48.870;12.542;2023-08-30T13:25:55;5.90;;;5.50;;
1475;SDS011;730;48.870;12.542;2023-08-30T13:28:21;5.00;;;4.60;;
1475;SDS011;730;48.870;12.542;2023-08-30T13:30:48;5.27;;;4.77;;
1475;SDS011;730;48.870;12.542;2023-08-30T13:33:15;5.33;;;4.90;;
1475;SDS011;730;48.870;12.542;2023-08-30T13:35:41;4.87;;;4.53;;
1475;SDS011;730;48.870;12.542;2023-08-30T13:38:07;4.90;;;4.50;;
1475;SDS011;730;48.870;12.542;2023-08-30T13:40:33;4.33;;;4.03;;
1475;SDS011;730;48.870;12.542;2023-08-30T13:42:59;5.10;;;4.80;;
1475;SDS011;730;48.870;12.542;2023-08-30T13:45:25;3.70;;;3.40;;
1475;SDS011;730;48.870;12.542;2023-08-30T13:47:51;3.83;;;3.53;;
1475;SDS011;730;48.870;12.542;2023-08-30T13:50:20;3.80;;;3.50;;
1475;SDS011;730;48.870;12.542;2023-08-30T13:52:46;3.53;;;3.33;;
1475;SDS011;730;48.870;12.542;2023-08-30T13:55:12;3.60;;;3.30;;
1475;SDS011;730;48.870;12.542;2023-08-30T13:57:38;3.40;;;3.10;;
1475;SDS011;730;48.870;12.542;2023-08-30T14:00:05;5.23;;;4.00;;
1475;SDS011;730;48.870;12.542;2023-08-30T14:02:35;6.93;;;6.43;;
1475;SDS011;730;48.870;12.542;2023-08-30T14:05:02;4.43;;;4.03;;
1475;SDS011;730;48.870;12.542;2023-08-30T14:07:28;5.00;;;4.70;;
1475;SDS011;730;48.870;12.542;2023-08-30T14:09:54;5.97;;;5.37;;
1475;SDS011;730;48.870;12.542;2023-08-30T14:12:20;4.73;;;4.43;;
1475;SDS011;730;48.870;12.542;2023-08-30T14:14:46;5.30;;;4.90;;
1475;SDS011;730;48.870;12.542;2023-08-30T14:17:12;4.57;;;4.20;;
1475;SDS011;730;48.870;12.542;2023-08-30T14:19:38;5.70;;;5.20;;
1475;SDS011;730;48.870;12.542;2023-08-30T14:22:04;4.97;;;4.57;;
1475;SDS011;730;48.870;12.542;2023-08-30T14:24:31;5.20;;;4.80;;
1475;SDS011;730;48.870;12.542;2023-08-30T14:26:59;5.23;;;4.80;;
1475;SDS011;730;48.870;12.542;2023-08-30T14:29:26;6.47;;;5.87;;
1475;SDS011;730;48.870;12.542;2023-08-30T14:31:52;6.50;;;6.00;;
1475;SDS011;730;48.870;12.542;2023-08-30T14:34:19;6.50;;;5.90;;
1475;SDS011;730;48.870;12.542;2023-08-30T14:36:46;6.60;;;6.00;;
1475;SDS011;730;48.870;12.542;2023-08-30T14:39:13;6.97;;;6.37;;
1475;SDS011;730;48.870;12.542;2023-08-30T14:41:40;6.27;;;5.70;;
1475;SDS011;730;48.870;12.542;2023-08-30T14:44:07;5.83;;;5.13;;
1475;SDS011;730;48.870;12.542;2023-08-30T14:46:33;8.20;;;7.10;;
1475;SDS011;730;48.870;12.542;2023-08-30T14:49:00;6.30;;;5.70;;
1475;SDS011;730;48.870;12.542;2023-08-30T14:51:37;5.10;;;4.53;;
1475;SDS011;730;48.870;12.542;2023-08-30T14:54:03;4.10;;;3.80;;
1475;SDS011;730;48.870;12.542;2023-08-30T14:56:29;4.40;;;3.97;;
1475;SDS011;730;48.870;12.542;2023-08-30T14:59:01;4.33;;;3.93;;
1475;SDS011;730;48.870;12.542;2023-08-30T15:01:27;5.10;;;4.60;;
1475;SDS011;730;48.870;12.542;2023-08-30T15:03:53;4.30;;;3.90;;
1475;SDS011;730;48.870;12.542;2023-08-30T15:06:19;4.70;;;4.20;;
1475;SDS011;730;48.870;12.542;2023-08-30T15:08:45;4.57;;;4.20;;
1475;SDS011;730;48.870;12.542;2023-08-30T15:11:12;4.03;;;3.70;;
1475;SDS011;730;48.870;12.542;2023-08-30T15:13:39;4.90;;;3.70;;
1475;SDS011;730;48.870;12.542;2023-08-30T15:16:05;4.17;;;3.87;;
1475;SDS011;730;48.870;12.542;2023-08-30T15:18:31;5.30;;;3.50;;
1475;SDS011;730;48.870;12.542;2023-08-30T15:20:57;5.53;;;5.13;;
1475;SDS011;730;48.870;12.542;2023-08-30T15:23:25;5.23;;;4.83;;
1475;SDS011;730;48.870;12.542;2023-08-30T15:25:57;4.50;;;4.20;;
1475;SDS011;730;48.870;12.542;2023-08-30T15:28:23;4.70;;;4.30;;
1475;SDS011;730;48.870;12.542;2023-08-30T15:30:50;4.53;;;4.23;;
1475;SDS011;730;48.870;12.542;2023-08-30T15:33:17;5.83;;;5.33;;
1475;SDS011;730;48.870;12.542;2023-08-30T15:35:43;5.73;;;5.27;;
1475;SDS011;730;48.870;12.542;2023-08-30T15:38:10;4.90;;;4.50;;
1475;SDS011;730;48.870;12.542;2023-08-30T15:40:37;3.83;;;3.53;;
1475;SDS011;730;48.870;12.542;2023-08-30T15:43:04;5.20;;;4.50;;
1475;SDS011;730;48.870;12.542;2023-08-30T15:45:30;5.37;;;4.87;;
1475;SDS011;730;48.870;12.542;2023-08-30T15:47:56;5.23;;;4.83;;
1475;SDS011;730;48.870;12.542;2023-08-30T15:50:22;4.93;;;4.53;;
1475;SDS011;730;48.870;12.542;2023-08-30T15:52:49;5.03;;;4.73;;
1475;SDS011;730;48.870;12.542;2023-08-30T15:55:15;5.77;;;5.27;;
1475;SDS011;730;48.870;12.542;2023-08-30T15:57:46;6.00;;;5.50;;
1475;SDS011;730;48.870;12.542;2023-08-30T16:00:12;7.77;;;7.17;;
1475;SDS011;730;48.870;12.542;2023-08-30T16:02:39;6.97;;;6.10;;
1475;SDS011;730;48.870;12.542;2023-08-30T16:05:05;7.90;;;4.70;;
1475;SDS011;730;48.870;12.542;2023-08-30T16:07:34;4.07;;;3.67;;
1475;SDS011;730;48.870;12.542;2023-08-30T16:10:00;5.63;;;4.70;;
1475;SDS011;730;48.870;12.542;2023-08-30T16:12:26;5.70;;;5.20;;
1475;SDS011;730;48.870;12.542;2023-08-30T16:14:52;6.97;;;6.27;;
1475;SDS011;730;48.870;12.542;2023-08-30T16:17:18;4.87;;;4.47;;
1475;SDS011;730;48.870;12.542;2023-08-30T16:19:44;3.97;;;3.60;;
1475;SDS011;730;48.870;12.542;2023-08-30T16:22:10;3.50;;;3.20;;
1475;SDS011;730;48.870;12.542;2023-08-30T16:24:36;4.03;;;3.63;;
1475;SDS011;730;48.870;12.542;2023-08-30T16:27:02;4.93;;;4.53;;
1475;SDS011;730;48.870;12.542;2023-08-30T16:29:28;5.40;;;4.10;;
1475;SDS011;730;48.870;12.542;2023-08-30T16:31:56;9.47;;;7.10;;
1475;SDS011;730;48.870;12.542;2023-08-30T16:34:22;7.73;;;6.93;;
1475;SDS011;730;48.870;12.542;2023-08-30T16:36:48;8.10;;;7.23;;
1475;SDS011;730;48.870;12.542;2023-08-30T16:39:15;5.27;;;4.80;;
1475;SDS011;730;48.870;12.542;2023-08-30T16:41:41;7.33;;;6.50;;
1475;SDS011;730;48.870;12.542;2023-08-30T16:44:10;10.43;;;7.30;;
1475;SDS011;730;48.870;12.542;2023-08-30T16:46:38;9.00;;;7.90;;
1475;SDS011;730;48.870;12.542;2023-08-30T16:49:11;8.80;;;7.90;;
1475;SDS011;730;48.870;12.542;2023-08-30T16:51:39;8.67;;;7.77;;
1475;SDS011;730;48.870;12.542;2023-08-30T16:54:05;7.20;;;6.50;;
1475;SDS011;730;48.870;12.542;2023-08-30T16:56:31;7.27;;;6.50;;
1475;SDS011;730;48.870;12.542;2023-08-30T16:58:58;5.40;;;4.90;;
1475;SDS011;730;48.870;12.542;2023-08-30T17:01:24;3.83;;;3.47;;
1475;SDS011;730;48.870;12.542;2023-08-30T17:03:50;4.23;;;3.93;;
1475;SDS011;730;48.870;12.542;2023-08-30T17:06:16;10.80;;;9.67;;
1475;SDS011;730;48.870;12.542;2023-08-30T17:08:42;8.97;;;8.20;;
1475;SDS011;730;48.870;12.542;2023-08-30T17:11:08;3.70;;;3.40;;
1475;SDS011;730;48.870;12.542;2023-08-30T17:13:34;4.00;;;3.70;;
1475;SDS011;730;48.870;12.542;2023-08-30T17:16:01;2.93;;;2.63;;
1475;SDS011;730;48.870;12.542;2023-08-30T17:18:28;4.00;;;3.63;;
1475;SDS011;730;48.870;12.542;2023-08-30T17:20:59;5.60;;;5.00;;
1475;SDS011;730;48.870;12.542;2023-08-30T17:23:25;6.00;;;5.40;;
1475;SDS011;730;48.870;12.542;2023-08-30T17:25:51;18.73;;;11.87;;
1475;SDS011;730;48.870;12.542;2023-08-30T17:28:20;14.40;;;10.43;;
1475;SDS011;730;48.870;12.542;2023-08-30T17:30:49;12.70;;;9.07;;
1475;SDS011;730;48.870;12.542;2023-08-30T17:33:15;10.20;;;7.40;;
1475;SDS011;730;48.870;12.542;2023-08-30T17:35:41;11.93;;;8.50;;
1475;SDS011;730;48.870;12.542;2023-08-30T17:38:11;11.30;;;8.60;;
1475;SDS011;730;48.870;12.542;2023-08-30T17:40:37;7.57;;;6.53;;
1475;SDS011;730;48.870;12.542;2023-08-30T17:43:05;5.80;;;5.30;;
1475;SDS011;730;48.870;12.542;2023-08-30T17:45:39;4.13;;;3.83;;
1475;SDS011;730;48.870;12.542;2023-08-30T17:48:07;4.17;;;3.80;;
1475;SDS011;730;48.870;12.542;2023-08-30T17:50:34;3.80;;;3.50;;
1475;SDS011;730;48.870;12.542;2023-08-30T17:53:00;3.97;;;3.57;;
1475;SDS011;730;48.870;12.542;2023-08-30T17:55:26;4.07;;;3.67;;
1475;SDS011;730;48.870;12.542;2023-08-30T17:57:58;3.80;;;3.50;;
1475;SDS011;730;48.870;12.542;2023-08-30T18:00:25;3.10;;;2.80;;
1475;SDS011;730;48.870;12.542;2023-08-30T18:02:54;4.17;;;3.80;;
1475;SDS011;730;48.870;12.542;2023-08-30T18:05:20;3.90;;;3.60;;
1475;SDS011;730;48.870;12.542;2023-08-30T18:07:46;3.57;;;3.27;;
1475;SDS011;730;48.870;12.542;2023-08-30T18:10:22;3.47;;;3.27;;
1475;SDS011;730;48.870;12.542;2023-08-30T18:12:49;3.60;;;3.30;;
1475;SDS011;730;48.870;12.542;2023-08-30T18:15:15;3.83;;;3.53;;
1475;SDS011;730;48.870;12.542;2023-08-30T18:17:42;3.87;;;3.57;;
1475;SDS011;730;48.870;12.542;2023-08-30T18:20:08;6.20;;;4.07;;
1475;SDS011;730;48.870;12.542;2023-08-30T18:22:35;4.07;;;3.77;;
1475;SDS011;730;48.870;12.542;2023-08-30T18:25:01;3.90;;;3.60;;
1475;SDS011;730;48.870;12.542;2023-08-30T18:27:29;4.20;;;3.80;;
1475;SDS011;730;48.870;12.542;2023-08-30T18:29:57;3.37;;;3.07;;
1475;SDS011;730;48.870;12.542;2023-08-30T18:32:23;5.23;;;3.57;;
1475;SDS011;730;48.870;12.542;2023-08-30T18:34:49;3.30;;;3.10;;
1475;SDS011;730;48.870;12.542;2023-08-30T18:37:16;3.70;;;3.40;;
1475;SDS011;730;48.870;12.542;2023-08-30T18:39:42;3.70;;;3.40;;
1475;SDS011;730;48.870;12.542;2023-08-30T18:42:11;3.93;;;3.63;;
1475;SDS011;730;48.870;12.542;2023-08-30T18:44:41;5.53;;;5.03;;
1475;SDS011;730;48.870;12.542;2023-08-30T18:47:14;5.37;;;3.83;;
1475;SDS011;730;48.870;12.542;2023-08-30T18:49:43;4.00;;;3.60;;
1475;SDS011;730;48.870;12.542;2023-08-30T18:52:09;4.53;;;3.50;;
1475;SDS011;730;48.870;12.542;2023-08-30T18:54:35;4.40;;;3.97;;
1475;SDS011;730;48.870;12.542;2023-08-30T18:57:01;3.70;;;3.40;;
1475;SDS011;730;48.870;12.542;2023-08-30T18:59:30;3.60;;;3.30;;
1475;SDS011;730;48.870;12.542;2023-08-30T19:01:56;3.90;;;3.60;;
1475;SDS011;730;48.870;12.542;2023-08-30T20:22:47;5.80;;;5.10;;
1475;SDS011;730;48.870;12.542;2023-08-30T20:25:13;4.93;;;4.63;;
1475;SDS011;730;48.870;12.542;2023-08-30T20:27:48;5.53;;;4.70;;
1475;SDS011;730;48.870;12.542;2023-08-30T20:30:14;5.23;;;4.83;;
1475;SDS011;730;48.870;12.542;2023-08-30T20:32:40;5.97;;;5.37;;
1475;SDS011;730;48.870;12.542;2023-08-30T20:35:06;5.10;;;4.70;;
1475;SDS011;730;48.870;12.542;2023-08-30T20:37:33;5.73;;;5.23;;
1475;SDS011;730;48.870;12.542;2023-08-30T20:39:59;5.37;;;4.90;;
1475;SDS011;730;48.870;12.542;2023-08-30T20:42:25;5.50;;;5.10;;
1475;SDS011;730;48.870;12.542;2023-08-30T20:44:51;4.83;;;4.47;;
1475;SDS011;730;48.870;12.542;2023-08-30T20:47:17;4.97;;;4.57;;
1475;SDS011;730;48.870;12.542;2023-08-30T20:49:43;5.80;;;5.30;;
1475;SDS011;730;48.870;12.542;2023-08-30T20:52:09;4.90;;;4.50;;
1475;SDS011;730;48.870;12.542;2023-08-30T20:54:35;4.77;;;4.43;;
1475;SDS011;730;48.870;12.542;2023-08-30T20:57:02;5.33;;;4.83;;
1475;SDS011;730;48.870;12.542;2023-08-30T20:59:29;5.27;;;4.77;;
1475;SDS011;730;48.870;12.542;2023-08-30T21:01:55;5.30;;;4.80;;
1475;SDS011;730;48.870;12.542;2023-08-30T21:04:21;4.47;;;4.10;;
1475;SDS011;730;48.870;12.542;2023-08-30T21:06:48;4.53;;;4.23;;
1475;SDS011;730;48.870;12.542;2023-08-30T21:09:14;4.47;;;4.10;;
1475;SDS011;730;48.870;12.542;2023-08-30T21:11:40;4.50;;;4.10;;
1475;SDS011;730;48.870;12.542;2023-08-30T21:14:06;5.10;;;4.70;;
1475;SDS011;730;48.870;12.542;2023-08-30T21:16:32;4.57;;;4.27;;
1475;SDS011;730;48.870;12.542;2023-08-30T21:18:59;4.67;;;4.27;;
1475;SDS011;730;48.870;12.542;2023-08-30T21:21:25;4.37;;;4.07;;
1475;SDS011;730;48.870;12.542;2023-08-30T21:23:54;4.63;;;4.23;;
1475;SDS011;730;48.870;12.542;2023-08-30T21:26:24;4.13;;;3.73;;
1475;SDS011;730;48.870;12.542;2023-08-30T21:28:52;5.07;;;4.67;;
1475;SDS011;730;48.870;12.542;2023-08-30T21:31:18;4.10;;;3.80;;
1475;SDS011;730;48.870;12.542;2023-08-30T21:33:45;4.47;;;4.17;;
1475;SDS011;730;48.870;12.542;2023-08-30T21:36:17;4.17;;;3.83;;
1475;SDS011;730;48.870;12.542;2023-08-30T21:38:43;7.00;;;5.00;;
1475;SDS011;730;48.870;12.542;2023-08-30T21:41:09;4.80;;;4.40;;
1475;SDS011;730;48.870;12.542;2023-08-30T21:43:35;5.10;;;4.70;;
1475;SDS011;730;48.870;12.542;2023-08-30T21:46:01;5.90;;;5.23;;
1475;SDS011;730;48.870;12.542;2023-08-30T21:48:27;5.83;;;5.33;;
1475;SDS011;730;48.870;12.542;2023-08-30T21:50:53;4.77;;;4.47;;
1475;SDS011;730;48.870;12.542;2023-08-30T21:53:20;5.60;;;5.10;;
1475;SDS011;730;48.870;12.542;2023-08-30T21:55:46;5.20;;;4.80;;
1475;SDS011;730;48.870;12.542;2023-08-30T21:58:12;6.47;;;5.90;;
1475;SDS011;730;48.870;12.542;2023-08-30T22:00:38;6.13;;;5.63;;
1475;SDS011;730;48.870;12.542;2023-08-30T22:03:05;5.60;;;5.20;;
1475;SDS011;730;48.870;12.542;2023-08-30T22:05:32;5.67;;;5.27;;
1475;SDS011;730;48.870;12.542;2023-08-30T22:07:58;5.80;;;5.30;;
1475;SDS011;730;48.870;12.542;2023-08-30T22:10:24;6.40;;;5.80;;
1475;SDS011;730;48.870;12.542;2023-08-30T22:12:52;6.00;;;5.40;;
1475;SDS011;730;48.870;12.542;2023-08-30T22:15:18;5.37;;;4.90;;
1475;SDS011;730;48.870;12.542;2023-08-30T22:17:49;6.47;;;5.97;;
1475;SDS011;730;48.870;12.542;2023-08-30T22:20:16;6.70;;;6.10;;
1475;SDS011;730;48.870;12.542;2023-08-30T22:22:56;7.10;;;6.00;;
1475;SDS011;730;48.870;12.542;2023-08-30T22:25:22;5.50;;;5.10;;
1475;SDS011;730;48.870;12.542;2023-08-30T22:27:48;6.70;;;6.10;;
1475;SDS011;730;48.870;12.542;2023-08-30T22:30:15;6.43;;;5.93;;
1475;SDS011;730;48.870;12.542;2023-08-30T22:32:41;6.53;;;5.93;;
1475;SDS011;730;48.870;12.542;2023-08-30T22:35:09;7.20;;;6.60;;
1475;SDS011;730;48.870;12.542;2023-08-30T22:37:36;7.50;;;6.90;;
1475;SDS011;730;48.870;12.542;2023-08-30T22:40:08;7.27;;;6.67;;
1475;SDS011;730;48.870;12.542;2023-08-30T22:42:35;7.10;;;6.60;;
1475;SDS011;730;48.870;12.542;2023-08-30T22:45:03;8.07;;;7.37;;
1475;SDS011;730;48.870;12.542;2023-08-30T22:47:29;7.60;;;7.00;;
1475;SDS011;730;48.870;12.542;2023-08-30T22:49:55;7.40;;;6.80;;
1475;SDS011;730;48.870;12.542;2023-08-30T22:52:21;8.20;;;7.50;;
1475;SDS011;730;48.870;12.542;2023-08-30T22:54:47;7.80;;;7.13;;
1475;SDS011;730;48.870;12.542;2023-08-30T22:57:13;7.53;;;6.93;;
1475;SDS011;730;48.870;12.542;2023-08-30T22:59:39;7.63;;;6.93;;
1475;SDS011;730;48.870;12.542;2023-08-30T23:02:05;7.27;;;6.67;;
1475;SDS011;730;48.870;12.542;2023-08-30T23:04:32;7.33;;;6.70;;
1475;SDS011;730;48.870;12.542;2023-08-30T23:06:59;7.50;;;6.90;;
1475;SDS011;730;48.870;12.542;2023-08-30T23:09:26;6.07;;;5.57;;
1475;SDS011;730;48.870;12.542;2023-08-30T23:11:52;7.20;;;6.60;;
1475;SDS011;730;48.870;12.542;2023-08-30T23:14:18;7.40;;;6.80;;
1475;SDS011;730;48.870;12.542;2023-08-30T23:16:47;8.03;;;6.97;;
1475;SDS011;730;48.870;12.542;2023-08-30T23:19:14;8.33;;;7.63;;
1475;SDS011;730;48.870;12.542;2023-08-30T23:21:40;7.20;;;6.50;;
1475;SDS011;730;48.870;12.542;2023-08-30T23:24:06;8.03;;;6.83;;
1475;SDS011;730;48.870;12.542;2023-08-30T23:26:33;7.43;;;6.73;;
1475;SDS011;730;48.870;12.542;2023-08-30T23:29:00;6.60;;;6.10;;
1475;SDS011;730;48.870;12.542;2023-08-30T23:31:26;7.30;;;6.70;;
1475;SDS011;730;48.870;12.542;2023-08-30T23:33:52;6.77;;;6.27;;
1475;SDS011;730;48.870;12.542;2023-08-30T23:36:21;7.10;;;6.50;;
1475;SDS011;730;48.870;12.542;2023-08-30T23:38:50;7.07;;;6.37;;
1475;SDS011;730;48.870;12.542;2023-08-30T23:41:17;7.20;;;6.70;;
1475;SDS011;730;48.870;12.542;2023-08-30T23:43:44;7.70;;;7.10;;
1475;SDS011;730;48.870;12.542;2023-08-30T23:46:10;7.80;;;7.10;;
1475;SDS011;730;48.870;12.542;2023-08-30T23:48:37;6.83;;;6.23;;
1475;SDS011;730;48.870;12.542;2023-08-30T23:51:03;7.43;;;6.83;;
1475;SDS011;730;48.870;12.542;2023-08-30T23:53:29;7.30;;;6.70;;
1475;SDS011;730;48.870;12.542;2023-08-30T23:55:58;6.17;;;5.67;;
1475;SDS011;730;48.870;12.542;2023-08-30T23:58:24;7.80;;;7.20;;
